sensor_id;sensor_type;location;lat;lon;timestamp;P1;durP1;ratioP1;P2;durP2;ratioP2
944;SDS011;459;48.676;9.034;2023-04-03T00:02:06;4.70;;;4.23;;
944;SDS011;459;48.676;9.034;2023-04-03T00:04:31;5.50;;;4.20;;
944;SDS011;459;48.676;9.034;2023-04-03T00:06:56;4.03;;;3.73;;
944;SDS011;459;48.676;9.034;2023-04-03T00:09:21;4.27;;;3.87;;
944;SDS011;459;48.676;9.034;2023-04-03T00:11:47;4.90;;;3.80;;
944;SDS011;459;48.676;9.034;2023-04-03T00:14:12;4.93;;;4.53;;
944;SDS011;459;48.676;9.034;2023-04-03T00:16:37;4.77;;;4.13;;
944;SDS011;459;48.676;9.034;2023-04-03T00:19:02;4.17;;;3.63;;
944;SDS011;459;48.676;9.034;2023-04-03T00:21:27;4.53;;;4.13;;
944;SDS011;459;48.676;9.034;2023-04-03T00:23:52;5.40;;;4.90;;
944;SDS011;459;48.676;9.034;2023-04-03T00:26:18;4.43;;;4.03;;
944;SDS011;459;48.676;9.034;2023-04-03T00:28:43;4.80;;;3.80;;
944;SDS011;459;48.676;9.034;2023-04-03T00:31:08;4.07;;;3.67;;
944;SDS011;459;48.676;9.034;2023-04-03T00:33:33;4.73;;;4.30;;
944;SDS011;459;48.676;9.034;2023-04-03T00:35:58;5.50;;;5.00;;
944;SDS011;459;48.676;9.034;2023-04-03T00:38:24;4.73;;;4.30;;
944;SDS011;459;48.676;9.034;2023-04-03T00:40:49;4.87;;;4.37;;
944;SDS011;459;48.676;9.034;2023-04-03T00:43:16;5.33;;;4.33;;
944;SDS011;459;48.676;9.034;2023-04-03T00:45:51;11.03;;;4.40;;
944;SDS011;459;48.676;9.034;2023-04-03T00:48:19;8.43;;;4.53;;
944;SDS011;459;48.676;9.034;2023-04-03T00:50:45;5.60;;;4.43;;
944;SDS011;459;48.676;9.034;2023-04-03T00:53:12;4.23;;;3.83;;
944;SDS011;459;48.676;9.034;2023-04-03T00:55:38;5.53;;;4.43;;
944;SDS011;459;48.676;9.034;2023-04-03T00:58:03;4.40;;;4.10;;
944;SDS011;459;48.676;9.034;2023-04-03T01:00:29;4.53;;;4.13;;
944;SDS011;459;48.676;9.034;2023-04-03T01:02:55;4.77;;;4.30;;
944;SDS011;459;48.676;9.034;2023-04-03T01:05:20;5.43;;;4.80;;
944;SDS011;459;48.676;9.034;2023-04-03T01:07:46;4.37;;;4.07;;
944;SDS011;459;48.676;9.034;2023-04-03T01:10:12;4.70;;;4.30;;
944;SDS011;459;48.676;9.034;2023-04-03T01:12:40;4.33;;;3.67;;
944;SDS011;459;48.676;9.034;2023-04-03T01:15:07;4.83;;;4.33;;
944;SDS011;459;48.676;9.034;2023-04-03T01:17:40;3.83;;;3.50;;
944;SDS011;459;48.676;9.034;2023-04-03T01:20:23;5.90;;;3.90;;
944;SDS011;459;48.676;9.034;2023-04-03T01:25:28;4.73;;;4.20;;
944;SDS011;459;48.676;9.034;2023-04-03T01:27:53;4.20;;;3.80;;
944;SDS011;459;48.676;9.034;2023-04-03T01:30:19;4.40;;;4.00;;
944;SDS011;459;48.676;9.034;2023-04-03T01:32:45;4.80;;;4.40;;
944;SDS011;459;48.676;9.034;2023-04-03T01:35:10;4.97;;;4.40;;
944;SDS011;459;48.676;9.034;2023-04-03T01:37:35;3.87;;;3.57;;
944;SDS011;459;48.676;9.034;2023-04-03T01:40:01;4.33;;;3.93;;
944;SDS011;459;48.676;9.034;2023-04-03T01:42:26;4.80;;;4.27;;
944;SDS011;459;48.676;9.034;2023-04-03T01:44:51;5.80;;;4.83;;
944;SDS011;459;48.676;9.034;2023-04-03T01:47:16;4.40;;;4.00;;
944;SDS011;459;48.676;9.034;2023-04-03T01:49:42;3.90;;;3.57;;
944;SDS011;459;48.676;9.034;2023-04-03T01:52:07;7.23;;;5.03;;
944;SDS011;459;48.676;9.034;2023-04-03T01:54:32;4.37;;;3.90;;
944;SDS011;459;48.676;9.034;2023-04-03T01:56:57;4.00;;;3.70;;
944;SDS011;459;48.676;9.034;2023-04-03T01:59:23;4.80;;;4.40;;
944;SDS011;459;48.676;9.034;2023-04-03T02:01:48;4.73;;;3.57;;
944;SDS011;459;48.676;9.034;2023-04-03T02:04:13;4.23;;;3.87;;
944;SDS011;459;48.676;9.034;2023-04-03T02:06:38;3.47;;;3.13;;
944;SDS011;459;48.676;9.034;2023-04-03T02:09:03;5.00;;;4.60;;
944;SDS011;459;48.676;9.034;2023-04-03T02:11:29;4.40;;;3.70;;
944;SDS011;459;48.676;9.034;2023-04-03T02:13:54;6.33;;;4.40;;
944;SDS011;459;48.676;9.034;2023-04-03T02:16:19;6.20;;;5.00;;
944;SDS011;459;48.676;9.034;2023-04-03T02:18:44;6.07;;;4.60;;
944;SDS011;459;48.676;9.034;2023-04-03T02:21:09;3.97;;;3.60;;
944;SDS011;459;48.676;9.034;2023-04-03T02:23:35;5.17;;;3.87;;
944;SDS011;459;48.676;9.034;2023-04-03T02:26:09;4.60;;;3.90;;
944;SDS011;459;48.676;9.034;2023-04-03T02:28:34;4.30;;;3.90;;
944;SDS011;459;48.676;9.034;2023-04-03T02:31:00;4.50;;;4.07;;
944;SDS011;459;48.676;9.034;2023-04-03T02:33:25;4.93;;;4.43;;
944;SDS011;459;48.676;9.034;2023-04-03T02:35:54;5.30;;;4.60;;
944;SDS011;459;48.676;9.034;2023-04-03T02:38:20;4.40;;;3.80;;
944;SDS011;459;48.676;9.034;2023-04-03T02:40:45;5.00;;;4.03;;
944;SDS011;459;48.676;9.034;2023-04-03T02:43:11;4.00;;;3.53;;
944;SDS011;459;48.676;9.034;2023-04-03T02:45:36;4.60;;;3.47;;
944;SDS011;459;48.676;9.034;2023-04-03T02:48:01;4.90;;;4.40;;
944;SDS011;459;48.676;9.034;2023-04-03T02:50:26;4.33;;;3.93;;
944;SDS011;459;48.676;9.034;2023-04-03T02:52:51;5.40;;;3.80;;
944;SDS011;459;48.676;9.034;2023-04-03T02:55:16;3.80;;;3.20;;
944;SDS011;459;48.676;9.034;2023-04-03T02:57:42;4.27;;;3.93;;
944;SDS011;459;48.676;9.034;2023-04-03T03:00:07;4.80;;;4.30;;
944;SDS011;459;48.676;9.034;2023-04-03T03:02:32;4.37;;;3.93;;
944;SDS011;459;48.676;9.034;2023-04-03T03:04:58;4.20;;;3.80;;
944;SDS011;459;48.676;9.034;2023-04-03T03:07:23;4.30;;;3.90;;
944;SDS011;459;48.676;9.034;2023-04-03T03:09:48;4.37;;;4.00;;
944;SDS011;459;48.676;9.034;2023-04-03T03:12:13;4.43;;;4.03;;
944;SDS011;459;48.676;9.034;2023-04-03T03:14:38;3.77;;;3.43;;
944;SDS011;459;48.676;9.034;2023-04-03T03:17:03;4.77;;;4.33;;
944;SDS011;459;48.676;9.034;2023-04-03T03:19:29;4.93;;;4.00;;
944;SDS011;459;48.676;9.034;2023-04-03T03:21:54;4.50;;;4.10;;
944;SDS011;459;48.676;9.034;2023-04-03T03:24:19;4.03;;;3.63;;
944;SDS011;459;48.676;9.034;2023-04-03T03:26:45;4.17;;;3.87;;
944;SDS011;459;48.676;9.034;2023-04-03T03:29:10;4.20;;;3.80;;
944;SDS011;459;48.676;9.034;2023-04-03T03:31:35;4.23;;;3.83;;
944;SDS011;459;48.676;9.034;2023-04-03T03:34:00;4.03;;;3.73;;
944;SDS011;459;48.676;9.034;2023-04-03T03:36:26;3.97;;;3.60;;
944;SDS011;459;48.676;9.034;2023-04-03T03:38:51;4.57;;;4.10;;
944;SDS011;459;48.676;9.034;2023-04-03T03:41:16;4.60;;;4.20;;
944;SDS011;459;48.676;9.034;2023-04-03T03:43:41;4.00;;;3.70;;
944;SDS011;459;48.676;9.034;2023-04-03T03:46:06;7.20;;;4.63;;
944;SDS011;459;48.676;9.034;2023-04-03T03:48:32;4.57;;;4.17;;
944;SDS011;459;48.676;9.034;2023-04-03T03:50:57;4.17;;;3.70;;
944;SDS011;459;48.676;9.034;2023-04-03T03:53:22;4.43;;;3.83;;
944;SDS011;459;48.676;9.034;2023-04-03T03:55:47;4.30;;;3.90;;
944;SDS011;459;48.676;9.034;2023-04-03T03:58:12;3.67;;;3.37;;
944;SDS011;459;48.676;9.034;2023-04-03T04:00:38;4.47;;;3.40;;
944;SDS011;459;48.676;9.034;2023-04-03T04:03:03;4.00;;;3.57;;
944;SDS011;459;48.676;9.034;2023-04-03T04:05:28;4.13;;;3.77;;
944;SDS011;459;48.676;9.034;2023-04-03T04:07:53;6.40;;;4.13;;
944;SDS011;459;48.676;9.034;2023-04-03T04:10:19;5.07;;;3.93;;
944;SDS011;459;48.676;9.034;2023-04-03T04:12:44;3.90;;;3.43;;
944;SDS011;459;48.676;9.034;2023-04-03T04:15:09;4.23;;;3.80;;
944;SDS011;459;48.676;9.034;2023-04-03T04:17:35;4.93;;;4.37;;
944;SDS011;459;48.676;9.034;2023-04-03T04:20:01;3.77;;;3.47;;
944;SDS011;459;48.676;9.034;2023-04-03T04:22:27;4.23;;;3.83;;
944;SDS011;459;48.676;9.034;2023-04-03T04:24:52;4.40;;;4.00;;
944;SDS011;459;48.676;9.034;2023-04-03T04:27:18;4.00;;;3.60;;
944;SDS011;459;48.676;9.034;2023-04-03T04:29:43;3.87;;;3.47;;
944;SDS011;459;48.676;9.034;2023-04-03T04:32:08;4.17;;;3.07;;
944;SDS011;459;48.676;9.034;2023-04-03T04:34:33;5.30;;;3.90;;
944;SDS011;459;48.676;9.034;2023-04-03T04:36:59;4.07;;;3.77;;
944;SDS011;459;48.676;9.034;2023-04-03T04:39:24;4.30;;;3.90;;
944;SDS011;459;48.676;9.034;2023-04-03T04:41:49;4.67;;;4.27;;
944;SDS011;459;48.676;9.034;2023-04-03T04:44:14;3.73;;;3.43;;
944;SDS011;459;48.676;9.034;2023-04-03T04:46:40;3.67;;;3.37;;
944;SDS011;459;48.676;9.034;2023-04-03T04:49:05;4.27;;;3.13;;
944;SDS011;459;48.676;9.034;2023-04-03T04:51:30;7.80;;;4.10;;
944;SDS011;459;48.676;9.034;2023-04-03T04:53:55;3.30;;;3.00;;
944;SDS011;459;48.676;9.034;2023-04-03T04:56:21;4.27;;;3.87;;
944;SDS011;459;48.676;9.034;2023-04-03T04:58:46;4.83;;;4.43;;
944;SDS011;459;48.676;9.034;2023-04-03T05:01:11;4.50;;;4.10;;
944;SDS011;459;48.676;9.034;2023-04-03T05:03:36;6.17;;;4.17;;
944;SDS011;459;48.676;9.034;2023-04-03T05:06:02;4.70;;;4.30;;
944;SDS011;459;48.676;9.034;2023-04-03T05:08:27;3.50;;;3.20;;
944;SDS011;459;48.676;9.034;2023-04-03T05:10:52;5.77;;;3.67;;
944;SDS011;459;48.676;9.034;2023-04-03T05:13:18;3.97;;;3.67;;
944;SDS011;459;48.676;9.034;2023-04-03T05:15:43;4.37;;;4.00;;
944;SDS011;459;48.676;9.034;2023-04-03T05:18:08;4.00;;;3.30;;
944;SDS011;459;48.676;9.034;2023-04-03T05:20:34;3.40;;;3.10;;
944;SDS011;459;48.676;9.034;2023-04-03T05:22:59;5.30;;;3.57;;
944;SDS011;459;48.676;9.034;2023-04-03T05:25:25;4.60;;;3.60;;
944;SDS011;459;48.676;9.034;2023-04-03T05:27:50;4.30;;;3.77;;
944;SDS011;459;48.676;9.034;2023-04-03T05:30:15;3.50;;;3.20;;
944;SDS011;459;48.676;9.034;2023-04-03T05:32:40;3.10;;;2.90;;
944;SDS011;459;48.676;9.034;2023-04-03T05:35:06;3.67;;;3.37;;
944;SDS011;459;48.676;9.034;2023-04-03T05:37:32;4.40;;;4.00;;
944;SDS011;459;48.676;9.034;2023-04-03T05:39:57;4.37;;;3.90;;
944;SDS011;459;48.676;9.034;2023-04-03T05:42:22;3.10;;;2.90;;
944;SDS011;459;48.676;9.034;2023-04-03T05:44:48;3.30;;;3.00;;
944;SDS011;459;48.676;9.034;2023-04-03T05:47:15;3.20;;;3.00;;
944;SDS011;459;48.676;9.034;2023-04-03T05:49:40;2.57;;;2.37;;
944;SDS011;459;48.676;9.034;2023-04-03T05:52:06;2.83;;;2.63;;
944;SDS011;459;48.676;9.034;2023-04-03T05:54:31;3.10;;;2.80;;
944;SDS011;459;48.676;9.034;2023-04-03T05:56:56;3.40;;;3.10;;
944;SDS011;459;48.676;9.034;2023-04-03T05:59:22;3.20;;;2.80;;
944;SDS011;459;48.676;9.034;2023-04-03T06:01:47;3.07;;;2.73;;
944;SDS011;459;48.676;9.034;2023-04-03T06:04:12;2.83;;;2.30;;
944;SDS011;459;48.676;9.034;2023-04-03T06:09:10;3.10;;;2.80;;
944;SDS011;459;48.676;9.034;2023-04-03T06:11:35;4.03;;;2.60;;
944;SDS011;459;48.676;9.034;2023-04-03T06:14:00;3.27;;;2.93;;
944;SDS011;459;48.676;9.034;2023-04-03T06:16:26;3.87;;;3.53;;
944;SDS011;459;48.676;9.034;2023-04-03T06:18:51;3.77;;;3.40;;
944;SDS011;459;48.676;9.034;2023-04-03T06:21:16;5.60;;;3.30;;
944;SDS011;459;48.676;9.034;2023-04-03T06:23:41;3.77;;;3.47;;
944;SDS011;459;48.676;9.034;2023-04-03T06:26:06;3.43;;;3.13;;
944;SDS011;459;48.676;9.034;2023-04-03T06:28:32;3.93;;;3.57;;
944;SDS011;459;48.676;9.034;2023-04-03T06:30:57;4.00;;;3.50;;
944;SDS011;459;48.676;9.034;2023-04-03T06:33:22;3.47;;;3.17;;
944;SDS011;459;48.676;9.034;2023-04-03T06:35:47;3.90;;;3.60;;
944;SDS011;459;48.676;9.034;2023-04-03T06:38:12;3.83;;;3.53;;
944;SDS011;459;48.676;9.034;2023-04-03T06:40:38;5.60;;;3.40;;
944;SDS011;459;48.676;9.034;2023-04-03T06:43:03;6.10;;;4.10;;
944;SDS011;459;48.676;9.034;2023-04-03T06:45:28;4.00;;;3.60;;
944;SDS011;459;48.676;9.034;2023-04-03T06:47:53;3.63;;;3.23;;
944;SDS011;459;48.676;9.034;2023-04-03T06:50:19;3.80;;;3.50;;
944;SDS011;459;48.676;9.034;2023-04-03T06:52:44;5.40;;;3.87;;
944;SDS011;459;48.676;9.034;2023-04-03T06:55:09;7.37;;;4.33;;
944;SDS011;459;48.676;9.034;2023-04-03T06:57:35;3.33;;;3.03;;
944;SDS011;459;48.676;9.034;2023-04-03T07:00:00;3.20;;;3.00;;
944;SDS011;459;48.676;9.034;2023-04-03T07:02:26;3.30;;;3.03;;
944;SDS011;459;48.676;9.034;2023-04-03T07:04:51;3.93;;;3.53;;
944;SDS011;459;48.676;9.034;2023-04-03T07:07:16;3.67;;;3.37;;
944;SDS011;459;48.676;9.034;2023-04-03T07:09:42;4.40;;;3.53;;
944;SDS011;459;48.676;9.034;2023-04-03T07:12:07;4.97;;;3.53;;
944;SDS011;459;48.676;9.034;2023-04-03T07:14:33;4.53;;;3.37;;
944;SDS011;459;48.676;9.034;2023-04-03T07:16:58;5.20;;;3.80;;
944;SDS011;459;48.676;9.034;2023-04-03T07:19:23;4.43;;;3.37;;
944;SDS011;459;48.676;9.034;2023-04-03T07:21:52;4.13;;;3.73;;
944;SDS011;459;48.676;9.034;2023-04-03T07:24:17;6.70;;;4.27;;
944;SDS011;459;48.676;9.034;2023-04-03T07:26:42;3.00;;;2.80;;
944;SDS011;459;48.676;9.034;2023-04-03T07:29:08;4.10;;;3.17;;
944;SDS011;459;48.676;9.034;2023-04-03T07:31:33;4.03;;;3.50;;
944;SDS011;459;48.676;9.034;2023-04-03T07:33:59;3.17;;;2.87;;
944;SDS011;459;48.676;9.034;2023-04-03T07:36:24;5.50;;;2.80;;
944;SDS011;459;48.676;9.034;2023-04-03T07:38:50;3.13;;;2.83;;
944;SDS011;459;48.676;9.034;2023-04-03T07:41:16;4.03;;;3.07;;
944;SDS011;459;48.676;9.034;2023-04-03T07:43:42;3.00;;;2.70;;
944;SDS011;459;48.676;9.034;2023-04-03T07:46:08;3.47;;;3.17;;
944;SDS011;459;48.676;9.034;2023-04-03T07:48:34;5.47;;;3.07;;
944;SDS011;459;48.676;9.034;2023-04-03T07:51:00;3.50;;;3.20;;
944;SDS011;459;48.676;9.034;2023-04-03T07:53:25;4.70;;;3.17;;
944;SDS011;459;48.676;9.034;2023-04-03T07:55:51;5.07;;;3.43;;
944;SDS011;459;48.676;9.034;2023-04-03T07:58:20;3.47;;;3.17;;
944;SDS011;459;48.676;9.034;2023-04-03T08:00:45;4.93;;;2.87;;
944;SDS011;459;48.676;9.034;2023-04-03T08:03:11;5.30;;;3.70;;
944;SDS011;459;48.676;9.034;2023-04-03T08:05:43;4.67;;;3.40;;
944;SDS011;459;48.676;9.034;2023-04-03T08:08:10;4.00;;;3.43;;
944;SDS011;459;48.676;9.034;2023-04-03T08:10:36;2.90;;;2.70;;
944;SDS011;459;48.676;9.034;2023-04-03T08:13:01;6.30;;;5.30;;
944;SDS011;459;48.676;9.034;2023-04-03T08:15:26;4.70;;;3.90;;
944;SDS011;459;48.676;9.034;2023-04-03T08:17:52;3.73;;;3.43;;
944;SDS011;459;48.676;9.034;2023-04-03T08:20:17;3.27;;;2.97;;
944;SDS011;459;48.676;9.034;2023-04-03T08:22:42;4.63;;;3.50;;
944;SDS011;459;48.676;9.034;2023-04-03T08:25:07;4.40;;;2.90;;
944;SDS011;459;48.676;9.034;2023-04-03T08:27:33;3.53;;;3.23;;
944;SDS011;459;48.676;9.034;2023-04-03T08:29:58;4.00;;;2.77;;
944;SDS011;459;48.676;9.034;2023-04-03T08:32:23;4.43;;;3.50;;
944;SDS011;459;48.676;9.034;2023-04-03T08:34:49;3.80;;;3.50;;
944;SDS011;459;48.676;9.034;2023-04-03T08:37:14;3.97;;;3.60;;
944;SDS011;459;48.676;9.034;2023-04-03T08:39:41;3.60;;;3.30;;
944;SDS011;459;48.676;9.034;2023-04-03T08:42:12;3.13;;;2.80;;
944;SDS011;459;48.676;9.034;2023-04-03T08:45:15;4.37;;;3.40;;
944;SDS011;459;48.676;9.034;2023-04-03T08:50:06;3.50;;;3.20;;
944;SDS011;459;48.676;9.034;2023-04-03T08:52:36;3.70;;;3.40;;
944;SDS011;459;48.676;9.034;2023-04-03T08:55:15;3.70;;;3.40;;
944;SDS011;459;48.676;9.034;2023-04-03T08:57:43;3.30;;;2.90;;
944;SDS011;459;48.676;9.034;2023-04-03T09:00:23;3.50;;;3.23;;
944;SDS011;459;48.676;9.034;2023-04-03T09:02:50;3.73;;;3.40;;
944;SDS011;459;48.676;9.034;2023-04-03T09:05:19;3.23;;;2.93;;
944;SDS011;459;48.676;9.034;2023-04-03T09:07:46;4.23;;;3.47;;
944;SDS011;459;48.676;9.034;2023-04-03T09:10:13;5.10;;;4.30;;
944;SDS011;459;48.676;9.034;2023-04-03T09:12:39;7.27;;;3.37;;
944;SDS011;459;48.676;9.034;2023-04-03T09:15:10;6.00;;;3.90;;
944;SDS011;459;48.676;9.034;2023-04-03T09:17:41;5.80;;;3.57;;
944;SDS011;459;48.676;9.034;2023-04-03T09:20:14;4.23;;;3.83;;
944;SDS011;459;48.676;9.034;2023-04-03T09:22:41;3.93;;;3.67;;
944;SDS011;459;48.676;9.034;2023-04-03T09:25:14;3.73;;;3.43;;
944;SDS011;459;48.676;9.034;2023-04-03T09:27:40;3.90;;;3.60;;
944;SDS011;459;48.676;9.034;2023-04-03T09:30:06;3.70;;;3.37;;
944;SDS011;459;48.676;9.034;2023-04-03T09:32:35;4.07;;;3.63;;
944;SDS011;459;48.676;9.034;2023-04-03T09:35:17;4.63;;;3.57;;
944;SDS011;459;48.676;9.034;2023-04-03T09:37:44;5.10;;;4.00;;
944;SDS011;459;48.676;9.034;2023-04-03T09:40:28;4.67;;;3.30;;
944;SDS011;459;48.676;9.034;2023-04-03T09:42:54;4.23;;;3.63;;
944;SDS011;459;48.676;9.034;2023-04-03T09:45:24;3.90;;;3.50;;
944;SDS011;459;48.676;9.034;2023-04-03T09:47:50;5.90;;;3.73;;
944;SDS011;459;48.676;9.034;2023-04-03T09:50:28;3.27;;;3.07;;
944;SDS011;459;48.676;9.034;2023-04-03T09:52:54;3.87;;;3.57;;
944;SDS011;459;48.676;9.034;2023-04-03T09:57:46;4.87;;;4.47;;
944;SDS011;459;48.676;9.034;2023-04-03T10:02:57;1.17;;;1.07;;
944;SDS011;459;48.676;9.034;2023-04-03T10:05:31;5.90;;;3.23;;
944;SDS011;459;48.676;9.034;2023-04-03T10:08:07;4.27;;;3.77;;
944;SDS011;459;48.676;9.034;2023-04-03T10:10:32;3.33;;;3.00;;
944;SDS011;459;48.676;9.034;2023-04-03T10:13:03;3.90;;;3.17;;
944;SDS011;459;48.676;9.034;2023-04-03T10:15:28;2.97;;;2.77;;
944;SDS011;459;48.676;9.034;2023-04-03T10:17:57;3.93;;;3.23;;
944;SDS011;459;48.676;9.034;2023-04-03T10:20:33;3.60;;;2.83;;
944;SDS011;459;48.676;9.034;2023-04-03T10:25:40;3.00;;;2.70;;
944;SDS011;459;48.676;9.034;2023-04-03T10:38:16;3.50;;;3.20;;
944;SDS011;459;48.676;9.034;2023-04-03T10:40:46;4.23;;;3.13;;
944;SDS011;459;48.676;9.034;2023-04-03T10:46:15;3.10;;;2.90;;
944;SDS011;459;48.676;9.034;2023-04-03T10:48:52;8.77;;;4.00;;
944;SDS011;459;48.676;9.034;2023-04-03T10:54:05;3.30;;;2.60;;
944;SDS011;459;48.676;9.034;2023-04-03T10:59:25;2.90;;;2.60;;
944;SDS011;459;48.676;9.034;2023-04-03T11:02:37;2.93;;;2.30;;
944;SDS011;459;48.676;9.034;2023-04-03T11:04:37;5.30;;;3.33;;
944;SDS011;459;48.676;9.034;2023-04-03T11:09:36;3.10;;;2.63;;
944;SDS011;459;48.676;9.034;2023-04-03T11:12:06;3.10;;;2.60;;
944;SDS011;459;48.676;9.034;2023-04-03T11:14:36;3.00;;;2.80;;
944;SDS011;459;48.676;9.034;2023-04-03T11:17:11;3.80;;;3.47;;
944;SDS011;459;48.676;9.034;2023-04-03T11:22:06;4.97;;;3.00;;
944;SDS011;459;48.676;9.034;2023-04-03T11:24:33;3.60;;;2.83;;
944;SDS011;459;48.676;9.034;2023-04-03T11:27:01;4.50;;;2.60;;
944;SDS011;459;48.676;9.034;2023-04-03T11:29:31;3.50;;;2.80;;
944;SDS011;459;48.676;9.034;2023-04-03T11:34:46;5.33;;;2.70;;
944;SDS011;459;48.676;9.034;2023-04-03T11:37:13;3.67;;;2.73;;
944;SDS011;459;48.676;9.034;2023-04-03T11:39:40;3.87;;;2.80;;
944;SDS011;459;48.676;9.034;2023-04-03T11:52:55;4.17;;;3.33;;
944;SDS011;459;48.676;9.034;2023-04-03T12:05:49;5.10;;;2.43;;
944;SDS011;459;48.676;9.034;2023-04-03T12:08:24;4.07;;;2.40;;
944;SDS011;459;48.676;9.034;2023-04-03T12:13:33;2.90;;;2.03;;
944;SDS011;459;48.676;9.034;2023-04-03T12:15:58;3.47;;;2.13;;
944;SDS011;459;48.676;9.034;2023-04-03T12:18:31;4.07;;;3.63;;
944;SDS011;459;48.676;9.034;2023-04-03T12:20:57;2.70;;;2.37;;
944;SDS011;459;48.676;9.034;2023-04-03T12:23:27;3.30;;;2.60;;
944;SDS011;459;48.676;9.034;2023-04-03T12:25:59;2.80;;;2.43;;
944;SDS011;459;48.676;9.034;2023-04-03T12:28:24;2.53;;;2.33;;
944;SDS011;459;48.676;9.034;2023-04-03T12:30:49;3.07;;;2.43;;
944;SDS011;459;48.676;9.034;2023-04-03T12:36:07;2.90;;;2.70;;
944;SDS011;459;48.676;9.034;2023-04-03T12:43:40;5.90;;;3.43;;
944;SDS011;459;48.676;9.034;2023-04-03T12:51:13;4.30;;;3.00;;
944;SDS011;459;48.676;9.034;2023-04-03T12:53:39;6.43;;;3.57;;
944;SDS011;459;48.676;9.034;2023-04-03T12:56:22;5.77;;;3.50;;
944;SDS011;459;48.676;9.034;2023-04-03T12:58:47;3.57;;;2.70;;
944;SDS011;459;48.676;9.034;2023-04-03T13:01:13;3.07;;;2.10;;
944;SDS011;459;48.676;9.034;2023-04-03T13:03:40;4.87;;;2.53;;
944;SDS011;459;48.676;9.034;2023-04-03T13:06:10;3.60;;;3.30;;
944;SDS011;459;48.676;9.034;2023-04-03T13:08:47;4.50;;;3.10;;
944;SDS011;459;48.676;9.034;2023-04-03T13:11:13;3.37;;;3.00;;
944;SDS011;459;48.676;9.034;2023-04-03T13:13:38;3.43;;;2.97;;
944;SDS011;459;48.676;9.034;2023-04-03T13:16:08;2.70;;;2.50;;
944;SDS011;459;48.676;9.034;2023-04-03T13:18:35;2.60;;;2.40;;
944;SDS011;459;48.676;9.034;2023-04-03T13:21:20;3.60;;;3.07;;
944;SDS011;459;48.676;9.034;2023-04-03T13:23:48;4.73;;;2.40;;
944;SDS011;459;48.676;9.034;2023-04-03T13:26:15;2.80;;;2.60;;
944;SDS011;459;48.676;9.034;2023-04-03T13:28:41;2.77;;;2.27;;
944;SDS011;459;48.676;9.034;2023-04-03T13:33:39;2.97;;;2.77;;
944;SDS011;459;48.676;9.034;2023-04-03T13:36:16;3.90;;;3.60;;
944;SDS011;459;48.676;9.034;2023-04-03T13:38:42;2.47;;;2.13;;
944;SDS011;459;48.676;9.034;2023-04-03T13:41:22;3.40;;;2.87;;
944;SDS011;459;48.676;9.034;2023-04-03T13:43:48;2.70;;;2.50;;
944;SDS011;459;48.676;9.034;2023-04-03T13:48:39;2.83;;;2.60;;
944;SDS011;459;48.676;9.034;2023-04-03T13:51:12;2.97;;;2.67;;
944;SDS011;459;48.676;9.034;2023-04-03T14:01:22;3.07;;;2.70;;
944;SDS011;459;48.676;9.034;2023-04-03T14:03:58;3.20;;;2.60;;
944;SDS011;459;48.676;9.034;2023-04-03T14:06:23;2.93;;;2.60;;
944;SDS011;459;48.676;9.034;2023-04-03T14:08:49;5.00;;;2.73;;
944;SDS011;459;48.676;9.034;2023-04-03T14:11:18;3.63;;;2.73;;
944;SDS011;459;48.676;9.034;2023-04-03T14:13:46;3.00;;;2.60;;
944;SDS011;459;48.676;9.034;2023-04-03T14:16:12;3.23;;;2.40;;
944;SDS011;459;48.676;9.034;2023-04-03T14:18:38;3.07;;;2.40;;
944;SDS011;459;48.676;9.034;2023-04-03T14:21:03;4.83;;;2.80;;
944;SDS011;459;48.676;9.034;2023-04-03T14:23:30;4.63;;;3.37;;
944;SDS011;459;48.676;9.034;2023-04-03T14:25:56;3.43;;;3.07;;
944;SDS011;459;48.676;9.034;2023-04-03T14:28:21;3.40;;;3.10;;
944;SDS011;459;48.676;9.034;2023-04-03T14:30:47;4.50;;;2.87;;
944;SDS011;459;48.676;9.034;2023-04-03T14:33:14;3.00;;;2.80;;
944;SDS011;459;48.676;9.034;2023-04-03T14:35:40;2.50;;;2.30;;
944;SDS011;459;48.676;9.034;2023-04-03T14:38:12;3.17;;;2.87;;
944;SDS011;459;48.676;9.034;2023-04-03T14:40:44;5.50;;;2.93;;
944;SDS011;459;48.676;9.034;2023-04-03T14:43:10;5.13;;;2.73;;
944;SDS011;459;48.676;9.034;2023-04-03T14:45:37;4.73;;;3.43;;
944;SDS011;459;48.676;9.034;2023-04-03T14:48:02;3.07;;;2.50;;
944;SDS011;459;48.676;9.034;2023-04-03T14:50:27;4.70;;;4.10;;
944;SDS011;459;48.676;9.034;2023-04-03T14:52:54;3.53;;;2.33;;
944;SDS011;459;48.676;9.034;2023-04-03T14:55:20;3.23;;;3.00;;
944;SDS011;459;48.676;9.034;2023-04-03T14:57:46;3.23;;;2.43;;
944;SDS011;459;48.676;9.034;2023-04-03T15:00:12;2.97;;;2.70;;
944;SDS011;459;48.676;9.034;2023-04-03T15:02:38;4.17;;;2.90;;
944;SDS011;459;48.676;9.034;2023-04-03T15:05:04;3.00;;;2.77;;
944;SDS011;459;48.676;9.034;2023-04-03T15:07:31;5.33;;;2.73;;
944;SDS011;459;48.676;9.034;2023-04-03T15:09:58;2.90;;;2.40;;
944;SDS011;459;48.676;9.034;2023-04-03T15:12:24;4.10;;;3.63;;
944;SDS011;459;48.676;9.034;2023-04-03T15:14:50;3.03;;;2.37;;
944;SDS011;459;48.676;9.034;2023-04-03T15:17:16;2.57;;;2.37;;
944;SDS011;459;48.676;9.034;2023-04-03T15:19:42;2.67;;;2.13;;
944;SDS011;459;48.676;9.034;2023-04-03T15:22:11;3.07;;;2.77;;
944;SDS011;459;48.676;9.034;2023-04-03T15:24:38;5.20;;;2.77;;
944;SDS011;459;48.676;9.034;2023-04-03T15:27:03;2.87;;;2.50;;
944;SDS011;459;48.676;9.034;2023-04-03T15:29:29;2.40;;;2.20;;
944;SDS011;459;48.676;9.034;2023-04-03T15:31:54;3.00;;;2.70;;
944;SDS011;459;48.676;9.034;2023-04-03T15:34:19;2.50;;;2.30;;
944;SDS011;459;48.676;9.034;2023-04-03T15:36:46;2.97;;;2.73;;
944;SDS011;459;48.676;9.034;2023-04-03T15:39:11;4.00;;;2.80;;
944;SDS011;459;48.676;9.034;2023-04-03T15:41:36;3.07;;;2.40;;
944;SDS011;459;48.676;9.034;2023-04-03T15:44:01;3.87;;;3.47;;
944;SDS011;459;48.676;9.034;2023-04-03T15:46:27;4.33;;;2.63;;
944;SDS011;459;48.676;9.034;2023-04-03T15:48:52;4.10;;;3.30;;
944;SDS011;459;48.676;9.034;2023-04-03T15:51:17;2.90;;;2.70;;
944;SDS011;459;48.676;9.034;2023-04-03T15:53:42;2.90;;;2.60;;
944;SDS011;459;48.676;9.034;2023-04-03T15:56:08;3.80;;;3.10;;
944;SDS011;459;48.676;9.034;2023-04-03T15:58:34;4.20;;;3.00;;
944;SDS011;459;48.676;9.034;2023-04-03T16:01:00;2.57;;;2.37;;
944;SDS011;459;48.676;9.034;2023-04-03T16:03:26;4.40;;;2.67;;
944;SDS011;459;48.676;9.034;2023-04-03T16:05:51;3.70;;;2.90;;
944;SDS011;459;48.676;9.034;2023-04-03T16:08:17;4.07;;;2.47;;
944;SDS011;459;48.676;9.034;2023-04-03T16:10:42;5.80;;;3.30;;
944;SDS011;459;48.676;9.034;2023-04-03T16:13:10;3.50;;;3.20;;
944;SDS011;459;48.676;9.034;2023-04-03T16:15:35;3.20;;;2.70;;
944;SDS011;459;48.676;9.034;2023-04-03T16:18:00;3.20;;;2.90;;
944;SDS011;459;48.676;9.034;2023-04-03T16:20:26;4.53;;;2.80;;
944;SDS011;459;48.676;9.034;2023-04-03T16:22:51;2.63;;;2.30;;
944;SDS011;459;48.676;9.034;2023-04-03T16:25:16;3.67;;;3.07;;
944;SDS011;459;48.676;9.034;2023-04-03T16:27:42;3.70;;;3.40;;
944;SDS011;459;48.676;9.034;2023-04-03T16:30:07;3.00;;;2.70;;
944;SDS011;459;48.676;9.034;2023-04-03T16:32:33;5.20;;;3.00;;
944;SDS011;459;48.676;9.034;2023-04-03T16:34:59;2.47;;;2.23;;
944;SDS011;459;48.676;9.034;2023-04-03T16:37:24;3.90;;;3.00;;
944;SDS011;459;48.676;9.034;2023-04-03T16:39:50;3.33;;;2.90;;
944;SDS011;459;48.676;9.034;2023-04-03T16:42:15;3.20;;;2.90;;
944;SDS011;459;48.676;9.034;2023-04-03T16:44:40;5.37;;;3.30;;
944;SDS011;459;48.676;9.034;2023-04-03T16:47:06;4.40;;;2.53;;
944;SDS011;459;48.676;9.034;2023-04-03T16:49:31;3.03;;;2.73;;
944;SDS011;459;48.676;9.034;2023-04-03T16:51:59;4.10;;;2.87;;
944;SDS011;459;48.676;9.034;2023-04-03T16:54:25;4.57;;;2.80;;
944;SDS011;459;48.676;9.034;2023-04-03T16:56:50;2.60;;;2.40;;
944;SDS011;459;48.676;9.034;2023-04-03T16:59:15;3.50;;;2.50;;
944;SDS011;459;48.676;9.034;2023-04-03T17:01:41;2.20;;;1.77;;
944;SDS011;459;48.676;9.034;2023-04-03T17:04:06;3.47;;;2.77;;
944;SDS011;459;48.676;9.034;2023-04-03T17:06:31;5.43;;;2.33;;
944;SDS011;459;48.676;9.034;2023-04-03T17:08:57;2.60;;;2.40;;
944;SDS011;459;48.676;9.034;2023-04-03T17:11:22;4.43;;;2.00;;
944;SDS011;459;48.676;9.034;2023-04-03T17:13:47;2.97;;;2.37;;